sensor_id;sensor_type;location;lat;lon;timestamp;P1;durP1;ratioP1;P2;durP2;ratioP2
80578;SDS011;69939;52.402;6.608;2024-03-23T00:55:53;14.32;;;4.85;;
80578;SDS011;69939;52.402;6.608;2024-03-23T00:58:20;12.98;;;4.00;;
80578;SDS011;69939;52.402;6.608;2024-03-23T01:01:07;16.77;;;4.63;;
80578;SDS011;69939;52.402;6.608;2024-03-23T01:03:35;10.48;;;3.67;;
80578;SDS011;69939;52.402;6.608;2024-03-23T01:06:02;20.17;;;4.70;;
80578;SDS011;69939;52.402;6.608;2024-03-23T01:08:33;14.55;;;4.13;;
80578;SDS011;69939;52.402;6.608;2024-03-23T01:13:30;21.77;;;4.22;;
80578;SDS011;69939;52.402;6.608;2024-03-23T01:16:04;10.63;;;4.50;;
80578;SDS011;69939;52.402;6.608;2024-03-23T01:18:34;14.32;;;4.15;;
80578;SDS011;69939;52.402;6.608;2024-03-23T01:21:16;14.57;;;3.15;;
80578;SDS011;69939;52.402;6.608;2024-03-23T01:23:45;13.00;;;4.10;;
80578;SDS011;69939;52.402;6.608;2024-03-23T01:26:28;19.27;;;5.30;;
80578;SDS011;69939;52.402;6.608;2024-03-23T01:28:56;16.08;;;4.28;;
80578;SDS011;69939;52.402;6.608;2024-03-23T01:31:23;13.60;;;3.95;;
80578;SDS011;69939;52.402;6.608;2024-03-23T01:33:50;16.65;;;4.40;;
80578;SDS011;69939;52.402;6.608;2024-03-23T01:36:19;13.52;;;4.70;;
80578;SDS011;69939;52.402;6.608;2024-03-23T01:41:14;19.42;;;4.40;;
80578;SDS011;69939;52.402;6.608;2024-03-23T01:43:44;15.02;;;4.50;;
80578;SDS011;69939;52.402;6.608;2024-03-23T01:46:12;14.50;;;4.22;;
80578;SDS011;69939;52.402;6.608;2024-03-23T01:48:41;18.58;;;5.57;;
80578;SDS011;69939;52.402;6.608;2024-03-23T01:51:11;20.27;;;5.78;;
80578;SDS011;69939;52.402;6.608;2024-03-23T01:53:48;14.32;;;3.72;;
80578;SDS011;69939;52.402;6.608;2024-03-23T01:56:15;15.10;;;4.47;;
80578;SDS011;69939;52.402;6.608;2024-03-23T01:58:51;14.23;;;4.75;;
80578;SDS011;69939;52.402;6.608;2024-03-23T02:01:18;19.00;;;5.60;;
80578;SDS011;69939;52.402;6.608;2024-03-23T02:03:44;10.07;;;3.83;;
80578;SDS011;69939;52.402;6.608;2024-03-23T02:06:11;16.77;;;4.93;;
80578;SDS011;69939;52.402;6.608;2024-03-23T02:08:46;19.02;;;5.72;;
80578;SDS011;69939;52.402;6.608;2024-03-23T02:11:13;12.20;;;3.90;;
80578;SDS011;69939;52.402;6.608;2024-03-23T02:13:40;19.60;;;4.55;;
80578;SDS011;69939;52.402;6.608;2024-03-23T02:16:06;13.23;;;4.32;;
80578;SDS011;69939;52.402;6.608;2024-03-23T02:18:33;18.10;;;5.07;;
80578;SDS011;69939;52.402;6.608;2024-03-23T02:21:00;20.60;;;6.18;;
80578;SDS011;69939;52.402;6.608;2024-03-23T02:23:33;14.38;;;4.22;;
80578;SDS011;69939;52.402;6.608;2024-03-23T02:26:00;14.32;;;3.90;;
80578;SDS011;69939;52.402;6.608;2024-03-23T02:28:30;15.98;;;4.72;;
80578;SDS011;69939;52.402;6.608;2024-03-23T02:30:57;15.63;;;4.53;;
80578;SDS011;69939;52.402;6.608;2024-03-23T02:33:24;17.90;;;4.13;;
80578;SDS011;69939;52.402;6.608;2024-03-23T02:35:51;16.80;;;4.20;;
80578;SDS011;69939;52.402;6.608;2024-03-23T02:38:30;15.73;;;4.88;;
80578;SDS011;69939;52.402;6.608;2024-03-23T02:41:02;18.55;;;4.95;;
80578;SDS011;69939;52.402;6.608;2024-03-23T02:43:29;11.75;;;3.85;;
80578;SDS011;69939;52.402;6.608;2024-03-23T02:45:59;15.23;;;5.07;;
80578;SDS011;69939;52.402;6.608;2024-03-23T02:48:29;19.60;;;3.97;;
80578;SDS011;69939;52.402;6.608;2024-03-23T02:50:55;15.43;;;4.40;;
80578;SDS011;69939;52.402;6.608;2024-03-23T02:53:22;11.70;;;3.80;;
80578;SDS011;69939;52.402;6.608;2024-03-23T02:55:57;18.20;;;5.22;;
80578;SDS011;69939;52.402;6.608;2024-03-23T02:58:23;19.65;;;4.93;;
80578;SDS011;69939;52.402;6.608;2024-03-23T03:00:50;16.15;;;5.25;;
80578;SDS011;69939;52.402;6.608;2024-03-23T03:03:17;20.48;;;6.78;;
80578;SDS011;69939;52.402;6.608;2024-03-23T03:05:45;19.45;;;5.90;;
80578;SDS011;69939;52.402;6.608;2024-03-23T03:08:21;27.75;;;8.25;;
80578;SDS011;69939;52.402;6.608;2024-03-23T03:10:49;21.58;;;6.55;;
80578;SDS011;69939;52.402;6.608;2024-03-23T03:13:16;19.05;;;6.97;;
80578;SDS011;69939;52.402;6.608;2024-03-23T03:15:43;24.00;;;6.60;;
80578;SDS011;69939;52.402;6.608;2024-03-23T03:18:10;17.73;;;6.43;;
80578;SDS011;69939;52.402;6.608;2024-03-23T03:20:37;15.30;;;5.93;;
80578;SDS011;69939;52.402;6.608;2024-03-23T03:23:04;26.33;;;7.10;;
80578;SDS011;69939;52.402;6.608;2024-03-23T03:25:37;28.52;;;8.90;;
80578;SDS011;69939;52.402;6.608;2024-03-23T03:28:06;25.80;;;8.93;;
80578;SDS011;69939;52.402;6.608;2024-03-23T03:30:33;15.27;;;6.22;;
80578;SDS011;69939;52.402;6.608;2024-03-23T03:32:59;29.80;;;8.88;;
80578;SDS011;69939;52.402;6.608;2024-03-23T03:35:25;26.33;;;7.10;;
80578;SDS011;69939;52.402;6.608;2024-03-23T03:37:52;20.40;;;7.20;;
80578;SDS011;69939;52.402;6.608;2024-03-23T03:40:19;18.75;;;6.70;;
80578;SDS011;69939;52.402;6.608;2024-03-23T03:42:48;13.95;;;6.55;;
80578;SDS011;69939;52.402;6.608;2024-03-23T03:45:15;15.43;;;6.35;;
80578;SDS011;69939;52.402;6.608;2024-03-23T03:47:42;18.13;;;6.82;;
80578;SDS011;69939;52.402;6.608;2024-03-23T03:50:08;22.58;;;8.27;;
80578;SDS011;69939;52.402;6.608;2024-03-23T03:52:37;20.60;;;6.50;;
80578;SDS011;69939;52.402;6.608;2024-03-23T03:55:09;20.75;;;6.63;;
80578;SDS011;69939;52.402;6.608;2024-03-23T03:57:49;21.75;;;7.60;;
80578;SDS011;69939;52.402;6.608;2024-03-23T04:00:16;21.70;;;6.03;;
80578;SDS011;69939;52.402;6.608;2024-03-23T04:02:46;21.27;;;6.50;;
80578;SDS011;69939;52.402;6.608;2024-03-23T04:05:13;16.55;;;5.93;;
80578;SDS011;69939;52.402;6.608;2024-03-23T04:07:41;26.42;;;6.70;;
80578;SDS011;69939;52.402;6.608;2024-03-23T04:10:09;15.77;;;6.40;;
80578;SDS011;69939;52.402;6.608;2024-03-23T04:12:36;22.45;;;7.10;;
80578;SDS011;69939;52.402;6.608;2024-03-23T04:15:09;21.13;;;6.63;;
80578;SDS011;69939;52.402;6.608;2024-03-23T04:17:35;17.85;;;6.20;;
80578;SDS011;69939;52.402;6.608;2024-03-23T04:20:03;20.52;;;5.85;;
80578;SDS011;69939;52.402;6.608;2024-03-23T04:22:34;19.90;;;7.00;;
80578;SDS011;69939;52.402;6.608;2024-03-23T04:25:06;22.45;;;7.05;;
80578;SDS011;69939;52.402;6.608;2024-03-23T04:27:35;16.75;;;6.00;;
80578;SDS011;69939;52.402;6.608;2024-03-23T04:30:02;18.33;;;6.38;;
80578;SDS011;69939;52.402;6.608;2024-03-23T04:32:33;21.42;;;6.95;;
80578;SDS011;69939;52.402;6.608;2024-03-23T04:35:02;23.90;;;7.43;;
80578;SDS011;69939;52.402;6.608;2024-03-23T04:37:38;19.65;;;7.38;;
80578;SDS011;69939;52.402;6.608;2024-03-23T04:40:06;21.52;;;6.90;;
80578;SDS011;69939;52.402;6.608;2024-03-23T04:42:36;17.88;;;7.38;;
80578;SDS011;69939;52.402;6.608;2024-03-23T04:45:04;26.88;;;8.25;;
80578;SDS011;69939;52.402;6.608;2024-03-23T04:47:44;20.15;;;7.47;;
80578;SDS011;69939;52.402;6.608;2024-03-23T04:50:12;17.70;;;6.05;;
80578;SDS011;69939;52.402;6.608;2024-03-23T04:52:38;17.80;;;5.55;;
80578;SDS011;69939;52.402;6.608;2024-03-23T04:55:05;20.10;;;6.95;;
80578;SDS011;69939;52.402;6.608;2024-03-23T04:57:33;25.40;;;6.95;;
80578;SDS011;69939;52.402;6.608;2024-03-23T05:00:01;21.50;;;7.47;;
80578;SDS011;69939;52.402;6.608;2024-03-23T05:02:30;16.90;;;5.82;;
80578;SDS011;69939;52.402;6.608;2024-03-23T05:05:02;15.95;;;6.53;;
80578;SDS011;69939;52.402;6.608;2024-03-23T05:07:29;15.32;;;6.65;;
80578;SDS011;69939;52.402;6.608;2024-03-23T05:09:55;16.55;;;6.07;;
80578;SDS011;69939;52.402;6.608;2024-03-23T05:12:22;22.10;;;7.47;;
80578;SDS011;69939;52.402;6.608;2024-03-23T05:14:58;17.48;;;6.18;;
80578;SDS011;69939;52.402;6.608;2024-03-23T05:19:50;20.40;;;6.53;;
80578;SDS011;69939;52.402;6.608;2024-03-23T05:22:17;27.30;;;9.90;;
80578;SDS011;69939;52.402;6.608;2024-03-23T05:24:44;15.55;;;6.18;;
80578;SDS011;69939;52.402;6.608;2024-03-23T05:27:11;12.75;;;6.03;;
80578;SDS011;69939;52.402;6.608;2024-03-23T05:29:37;18.92;;;6.40;;
80578;SDS011;69939;52.402;6.608;2024-03-23T05:32:07;16.35;;;6.10;;
80578;SDS011;69939;52.402;6.608;2024-03-23T05:34:33;22.40;;;8.85;;
80578;SDS011;69939;52.402;6.608;2024-03-23T05:37:00;18.65;;;7.07;;
80578;SDS011;69939;52.402;6.608;2024-03-23T05:39:31;12.90;;;5.30;;
80578;SDS011;69939;52.402;6.608;2024-03-23T05:42:08;26.23;;;10.45;;
80578;SDS011;69939;52.402;6.608;2024-03-23T05:44:35;22.13;;;8.15;;
80578;SDS011;69939;52.402;6.608;2024-03-23T05:47:01;24.63;;;9.45;;
80578;SDS011;69939;52.402;6.608;2024-03-23T05:49:31;16.40;;;7.53;;
80578;SDS011;69939;52.402;6.608;2024-03-23T05:52:02;20.92;;;8.63;;
80578;SDS011;69939;52.402;6.608;2024-03-23T05:54:32;24.10;;;7.82;;
80578;SDS011;69939;52.402;6.608;2024-03-23T05:56:58;18.60;;;6.22;;
80578;SDS011;69939;52.402;6.608;2024-03-23T05:59:28;19.75;;;7.60;;
80578;SDS011;69939;52.402;6.608;2024-03-23T06:01:54;12.20;;;5.78;;
80578;SDS011;69939;52.402;6.608;2024-03-23T06:04:21;20.23;;;7.55;;
80578;SDS011;69939;52.402;6.608;2024-03-23T06:06:48;19.70;;;7.32;;
80578;SDS011;69939;52.402;6.608;2024-03-23T06:09:17;21.63;;;9.70;;
80578;SDS011;69939;52.402;6.608;2024-03-23T06:11:44;15.65;;;6.65;;
80578;SDS011;69939;52.402;6.608;2024-03-23T06:14:25;17.20;;;7.93;;
80578;SDS011;69939;52.402;6.608;2024-03-23T06:17:11;20.05;;;8.73;;
80578;SDS011;69939;52.402;6.608;2024-03-23T06:19:40;19.23;;;8.35;;
80578;SDS011;69939;52.402;6.608;2024-03-23T06:22:07;19.20;;;7.63;;
80578;SDS011;69939;52.402;6.608;2024-03-23T06:24:36;24.63;;;10.85;;
80578;SDS011;69939;52.402;6.608;2024-03-23T06:27:08;20.58;;;9.52;;
80578;SDS011;69939;52.402;6.608;2024-03-23T06:29:35;20.33;;;9.52;;
80578;SDS011;69939;52.402;6.608;2024-03-23T06:32:05;16.65;;;7.18;;
80578;SDS011;69939;52.402;6.608;2024-03-23T06:34:34;19.17;;;8.27;;
80578;SDS011;69939;52.402;6.608;2024-03-23T06:37:02;20.08;;;8.32;;
80578;SDS011;69939;52.402;6.608;2024-03-23T06:39:29;17.13;;;7.28;;
80578;SDS011;69939;52.402;6.608;2024-03-23T06:42:00;19.33;;;6.55;;
80578;SDS011;69939;52.402;6.608;2024-03-23T06:44:27;15.35;;;7.30;;
80578;SDS011;69939;52.402;6.608;2024-03-23T06:46:54;13.40;;;6.20;;
80578;SDS011;69939;52.402;6.608;2024-03-23T06:49:30;15.20;;;6.25;;
80578;SDS011;69939;52.402;6.608;2024-03-23T06:51:58;18.38;;;7.20;;
80578;SDS011;69939;52.402;6.608;2024-03-23T06:54:25;13.85;;;6.32;;
80578;SDS011;69939;52.402;6.608;2024-03-23T06:56:52;13.02;;;6.80;;
80578;SDS011;69939;52.402;6.608;2024-03-23T06:59:18;15.85;;;6.63;;
80578;SDS011;69939;52.402;6.608;2024-03-23T07:01:45;13.10;;;5.50;;
80578;SDS011;69939;52.402;6.608;2024-03-23T07:04:11;11.70;;;4.55;;
80578;SDS011;69939;52.402;6.608;2024-03-23T07:06:44;11.30;;;4.28;;
80578;SDS011;69939;52.402;6.608;2024-03-23T07:09:11;6.75;;;2.80;;
80578;SDS011;69939;52.402;6.608;2024-03-23T07:11:38;7.82;;;2.90;;
80578;SDS011;69939;52.402;6.608;2024-03-23T07:14:05;5.72;;;2.38;;
80578;SDS011;69939;52.402;6.608;2024-03-23T07:16:34;4.25;;;1.67;;
80578;SDS011;69939;52.402;6.608;2024-03-23T07:19:00;4.30;;;1.70;;
80578;SDS011;69939;52.402;6.608;2024-03-23T07:21:35;3.47;;;1.30;;
80578;SDS011;69939;52.402;6.608;2024-03-23T07:24:05;2.67;;;1.10;;
80578;SDS011;69939;52.402;6.608;2024-03-23T07:26:34;2.13;;;1.00;;
80578;SDS011;69939;52.402;6.608;2024-03-23T07:29:04;2.33;;;1.27;;
80578;SDS011;69939;52.402;6.608;2024-03-23T07:31:32;5.57;;;1.52;;
80578;SDS011;69939;52.402;6.608;2024-03-23T07:33:58;4.15;;;1.58;;
80578;SDS011;69939;52.402;6.608;2024-03-23T07:36:25;6.07;;;1.80;;
80578;SDS011;69939;52.402;6.608;2024-03-23T07:39:03;5.97;;;1.35;;
80578;SDS011;69939;52.402;6.608;2024-03-23T07:41:29;12.60;;;11.90;;
80578;SDS011;69939;52.402;6.608;2024-03-23T07:43:56;3.65;;;1.15;;
80578;SDS011;69939;52.402;6.608;2024-03-23T07:46:23;2.08;;;0.95;;
80578;SDS011;69939;52.402;6.608;2024-03-23T07:48:50;1.88;;;0.95;;
80578;SDS011;69939;52.402;6.608;2024-03-23T07:51:17;4.15;;;1.17;;
80578;SDS011;69939;52.402;6.608;2024-03-23T07:53:47;2.78;;;1.35;;
80578;SDS011;69939;52.402;6.608;2024-03-23T07:56:16;2.75;;;1.17;;
80578;SDS011;69939;52.402;6.608;2024-03-23T07:58:43;4.40;;;1.45;;
80578;SDS011;69939;52.402;6.608;2024-03-23T08:01:10;4.60;;;1.88;;
80578;SDS011;69939;52.402;6.608;2024-03-23T08:03:38;3.60;;;1.85;;
80578;SDS011;69939;52.402;6.608;2024-03-23T08:06:06;3.45;;;1.75;;
80578;SDS011;69939;52.402;6.608;2024-03-23T08:08:34;3.20;;;1.92;;
80578;SDS011;69939;52.402;6.608;2024-03-23T08:11:06;4.75;;;1.90;;
80578;SDS011;69939;52.402;6.608;2024-03-23T08:13:37;5.47;;;2.55;;
80578;SDS011;69939;52.402;6.608;2024-03-23T08:16:05;4.28;;;1.50;;
80578;SDS011;69939;52.402;6.608;2024-03-23T08:18:34;3.03;;;1.58;;
80578;SDS011;69939;52.402;6.608;2024-03-23T08:21:07;4.40;;;2.00;;
80578;SDS011;69939;52.402;6.608;2024-03-23T08:23:39;6.13;;;2.25;;
80578;SDS011;69939;52.402;6.608;2024-03-23T08:26:10;7.45;;;2.00;;
80578;SDS011;69939;52.402;6.608;2024-03-23T08:31:36;8.02;;;3.63;;
80578;SDS011;69939;52.402;6.608;2024-03-23T08:34:03;7.93;;;3.10;;
80578;SDS011;69939;52.402;6.608;2024-03-23T08:36:29;5.47;;;3.28;;
80578;SDS011;69939;52.402;6.608;2024-03-23T08:38:56;6.82;;;3.03;;
80578;SDS011;69939;52.402;6.608;2024-03-23T08:41:24;8.65;;;3.25;;
80578;SDS011;69939;52.402;6.608;2024-03-23T08:43:50;5.55;;;2.08;;
80578;SDS011;69939;52.402;6.608;2024-03-23T08:46:33;4.50;;;2.10;;
80578;SDS011;69939;52.402;6.608;2024-03-23T08:49:02;6.50;;;2.50;;
80578;SDS011;69939;52.402;6.608;2024-03-23T08:51:29;7.28;;;2.45;;
80578;SDS011;69939;52.402;6.608;2024-03-23T08:53:55;4.63;;;2.42;;
80578;SDS011;69939;52.402;6.608;2024-03-23T08:56:22;6.03;;;1.95;;
80578;SDS011;69939;52.402;6.608;2024-03-23T08:58:48;4.85;;;2.08;;
80578;SDS011;69939;52.402;6.608;2024-03-23T09:01:15;5.35;;;2.75;;
80578;SDS011;69939;52.402;6.608;2024-03-23T09:03:44;8.52;;;2.15;;
80578;SDS011;69939;52.402;6.608;2024-03-23T09:06:11;4.65;;;1.83;;
80578;SDS011;69939;52.402;6.608;2024-03-23T09:08:42;4.85;;;1.90;;
80578;SDS011;69939;52.402;6.608;2024-03-23T09:11:11;3.90;;;1.20;;
80578;SDS011;69939;52.402;6.608;2024-03-23T09:16:05;3.33;;;1.35;;
80578;SDS011;69939;52.402;6.608;2024-03-23T09:18:35;1.15;;;0.75;;
80578;SDS011;69939;52.402;6.608;2024-03-23T09:21:10;5.75;;;1.05;;
80578;SDS011;69939;52.402;6.608;2024-03-23T09:23:39;4.80;;;1.52;;
80578;SDS011;69939;52.402;6.608;2024-03-23T09:26:05;6.38;;;2.40;;
80578;SDS011;69939;52.402;6.608;2024-03-23T09:28:32;5.65;;;2.10;;
80578;SDS011;69939;52.402;6.608;2024-03-23T09:31:02;3.22;;;1.52;;
80578;SDS011;69939;52.402;6.608;2024-03-23T09:33:28;5.15;;;1.80;;
80578;SDS011;69939;52.402;6.608;2024-03-23T09:35:55;8.68;;;1.50;;
80578;SDS011;69939;52.402;6.608;2024-03-23T09:38:24;3.40;;;1.48;;
80578;SDS011;69939;52.402;6.608;2024-03-23T09:40:52;3.58;;;1.30;;
80578;SDS011;69939;52.402;6.608;2024-03-23T09:43:31;5.82;;;1.45;;
80578;SDS011;69939;52.402;6.608;2024-03-23T09:48:24;5.30;;;1.35;;
80578;SDS011;69939;52.402;6.608;2024-03-23T09:50:50;5.85;;;1.40;;
80578;SDS011;69939;52.402;6.608;2024-03-23T09:53:17;6.80;;;2.13;;
80578;SDS011;69939;52.402;6.608;2024-03-23T09:55:54;5.80;;;1.75;;
80578;SDS011;69939;52.402;6.608;2024-03-23T09:58:23;7.10;;;2.50;;
80578;SDS011;69939;52.402;6.608;2024-03-23T10:00:51;6.32;;;2.08;;
80578;SDS011;69939;52.402;6.608;2024-03-23T10:03:19;11.40;;;2.85;;
80578;SDS011;69939;52.402;6.608;2024-03-23T10:06:02;7.57;;;2.30;;
80578;SDS011;69939;52.402;6.608;2024-03-23T10:08:29;9.20;;;2.40;;
80578;SDS011;69939;52.402;6.608;2024-03-23T10:13:52;9.02;;;2.83;;
80578;SDS011;69939;52.402;6.608;2024-03-23T10:16:27;6.97;;;2.67;;
80578;SDS011;69939;52.402;6.608;2024-03-23T10:18:54;7.38;;;2.28;;
80578;SDS011;69939;52.402;6.608;2024-03-23T10:21:20;9.43;;;2.42;;
80578;SDS011;69939;52.402;6.608;2024-03-23T10:23:47;7.45;;;2.10;;
80578;SDS011;69939;52.402;6.608;2024-03-23T10:26:17;9.73;;;2.60;;
80578;SDS011;69939;52.402;6.608;2024-03-23T10:31:37;8.68;;;2.40;;
80578;SDS011;69939;52.402;6.608;2024-03-23T10:34:06;7.13;;;2.88;;
80578;SDS011;69939;52.402;6.608;2024-03-23T10:36:34;65.22;;;62.42;;
80578;SDS011;69939;52.402;6.608;2024-03-23T10:39:13;5.63;;;1.63;;
80578;SDS011;69939;52.402;6.608;2024-03-23T10:41:48;4.47;;;1.50;;
80578;SDS011;69939;52.402;6.608;2024-03-23T10:44:29;4.22;;;1.10;;
80578;SDS011;69939;52.402;6.608;2024-03-23T10:46:58;4.55;;;1.20;;
80578;SDS011;69939;52.402;6.608;2024-03-23T10:49:29;3.75;;;1.05;;
80578;SDS011;69939;52.402;6.608;2024-03-23T10:51:59;2.10;;;0.80;;
80578;SDS011;69939;52.402;6.608;2024-03-23T10:54:33;3.97;;;0.90;;
80578;SDS011;69939;52.402;6.608;2024-03-23T10:57:02;4.32;;;1.00;;
80578;SDS011;69939;52.402;6.608;2024-03-23T10:59:34;3.17;;;0.90;;
80578;SDS011;69939;52.402;6.608;2024-03-23T11:02:03;1.70;;;0.68;;
80578;SDS011;69939;52.402;6.608;2024-03-23T11:04:30;2.85;;;0.80;;
80578;SDS011;69939;52.402;6.608;2024-03-23T11:06:58;4.05;;;1.27;;
80578;SDS011;69939;52.402;6.608;2024-03-23T11:15:04;4.35;;;1.70;;
80578;SDS011;69939;52.402;6.608;2024-03-23T11:17:37;7.45;;;2.42;;
80578;SDS011;69939;52.402;6.608;2024-03-23T11:20:04;7.53;;;1.80;;
80578;SDS011;69939;52.402;6.608;2024-03-23T11:22:38;7.43;;;2.55;;
80578;SDS011;69939;52.402;6.608;2024-03-23T11:25:18;13.15;;;12.20;;
80578;SDS011;69939;52.402;6.608;2024-03-23T11:27:46;10.07;;;2.22;;
80578;SDS011;69939;52.402;6.608;2024-03-23T11:30:15;6.88;;;1.83;;
80578;SDS011;69939;52.402;6.608;2024-03-23T11:32:43;4.35;;;1.77;;
80578;SDS011;69939;52.402;6.608;2024-03-23T11:35:10;4.75;;;2.42;;
80578;SDS011;69939;52.402;6.608;2024-03-23T11:38:03;4.38;;;1.73;;
80578;SDS011;69939;52.402;6.608;2024-03-23T11:40:47;4.00;;;1.30;;
80578;SDS011;69939;52.402;6.608;2024-03-23T11:43:16;4.85;;;1.73;;
80578;SDS011;69939;52.402;6.608;2024-03-23T11:45:45;3.95;;;1.08;;
80578;SDS011;69939;52.402;6.608;2024-03-23T11:48:22;5.82;;;1.50;;
80578;SDS011;69939;52.402;6.608;2024-03-23T11:50:49;4.00;;;1.45;;
80578;SDS011;69939;52.402;6.608;2024-03-23T11:53:23;4.78;;;1.35;;
80578;SDS011;69939;52.402;6.608;2024-03-23T11:58:39;5.10;;;2.08;;
80578;SDS011;69939;52.402;6.608;2024-03-23T12:01:09;5.28;;;1.88;;
80578;SDS011;69939;52.402;6.608;2024-03-23T12:03:43;4.10;;;1.60;;
80578;SDS011;69939;52.402;6.608;2024-03-23T12:06:10;4.18;;;1.85;;
80578;SDS011;69939;52.402;6.608;2024-03-23T12:08:36;3.95;;;1.63;;
80578;SDS011;69939;52.402;6.608;2024-03-23T12:11:06;5.15;;;1.88;;
80578;SDS011;69939;52.402;6.608;2024-03-23T12:13:34;5.57;;;1.98;;
80578;SDS011;69939;52.402;6.608;2024-03-23T12:16:10;5.70;;;2.30;;
80578;SDS011;69939;52.402;6.608;2024-03-23T12:18:50;4.40;;;1.40;;
80578;SDS011;69939;52.402;6.608;2024-03-23T12:21:18;2.75;;;1.13;;
80578;SDS011;69939;52.402;6.608;2024-03-23T12:23:45;2.15;;;0.85;;
80578;SDS011;69939;52.402;6.608;2024-03-23T12:26:12;4.07;;;1.58;;
80578;SDS011;69939;52.402;6.608;2024-03-23T12:28:38;3.30;;;1.27;;
80578;SDS011;69939;52.402;6.608;2024-03-23T12:31:07;2.95;;;1.00;;
80578;SDS011;69939;52.402;6.608;2024-03-23T12:33:36;1.52;;;0.70;;
80578;SDS011;69939;52.402;6.608;2024-03-23T12:36:06;2.25;;;0.90;;
80578;SDS011;69939;52.402;6.608;2024-03-23T12:38:33;4.72;;;1.67;;
80578;SDS011;69939;52.402;6.608;2024-03-23T12:41:08;1.85;;;1.00;;
80578;SDS011;69939;52.402;6.608;2024-03-23T12:43:35;5.63;;;1.58;;
80578;SDS011;69939;52.402;6.608;2024-03-23T12:46:02;6.22;;;2.55;;
80578;SDS011;69939;52.402;6.608;2024-03-23T12:48:29;5.40;;;2.00;;
80578;SDS011;69939;52.402;6.608;2024-03-23T12:51:04;8.77;;;2.22;;
80578;SDS011;69939;52.402;6.608;2024-03-23T12:53:31;6.78;;;1.30;;
80578;SDS011;69939;52.402;6.608;2024-03-23T12:55:58;9.00;;;1.83;;
80578;SDS011;69939;52.402;6.608;2024-03-23T12:58:36;6.40;;;2.70;;
80578;SDS011;69939;52.402;6.608;2024-03-23T13:01:03;7.20;;;2.10;;
80578;SDS011;69939;52.402;6.608;2024-03-23T13:03:30;8.25;;;2.47;;
80578;SDS011;69939;52.402;6.608;2024-03-23T13:06:09;6.35;;;3.10;;
80578;SDS011;69939;52.402;6.608;2024-03-23T13:08:35;9.15;;;2.78;;
80578;SDS011;69939;52.402;6.608;2024-03-23T13:11:02;9.00;;;2.40;;
80578;SDS011;69939;52.402;6.608;2024-03-23T13:13:29;7.18;;;2.83;;
80578;SDS011;69939;52.402;6.608;2024-03-23T13:15:56;7.20;;;2.22;;
80578;SDS011;69939;52.402;6.608;2024-03-23T13:18:26;3.28;;;1.15;;
80578;SDS011;69939;52.402;6.608;2024-03-23T13:21:10;5.10;;;2.03;;
80578;SDS011;69939;52.402;6.608;2024-03-23T13:23:37;4.03;;;1.40;;
80578;SDS011;69939;52.402;6.608;2024-03-23T13:26:03;7.43;;;1.73;;
80578;SDS011;69939;52.402;6.608;2024-03-23T13:28:41;4.93;;;1.80;;
80578;SDS011;69939;52.402;6.608;2024-03-23T13:31:07;3.97;;;1.50;;
80578;SDS011;69939;52.402;6.608;2024-03-23T13:33:34;3.70;;;1.30;;
80578;SDS011;69939;52.402;6.608;2024-03-23T13:36:00;6.80;;;1.42;;
80578;SDS011;69939;52.402;6.608;2024-03-23T13:38:29;3.78;;;1.35;;
80578;SDS011;69939;52.402;6.608;2024-03-23T13:40:56;5.68;;;1.85;;
80578;SDS011;69939;52.402;6.608;2024-03-23T13:43:35;5.85;;;1.60;;
80578;SDS011;69939;52.402;6.608;2024-03-23T13:46:02;5.70;;;1.25;;
80578;SDS011;69939;52.402;6.608;2024-03-23T13:48:29;4.97;;;1.60;;
80578;SDS011;69939;52.402;6.608;2024-03-23T13:50:59;5.85;;;1.98;;
80578;SDS011;69939;52.402;6.608;2024-03-23T13:53:26;9.38;;;1.98;;
80578;SDS011;69939;52.402;6.608;2024-03-23T13:55:55;5.05;;;1.95;;
80578;SDS011;69939;52.402;6.608;2024-03-23T13:59:00;5.30;;;1.40;;
80578;SDS011;69939;52.402;6.608;2024-03-23T14:02:16;3.60;;;1.35;;
80578;SDS011;69939;52.402;6.608;2024-03-23T14:04:45;6.80;;;2.17;;
80578;SDS011;69939;52.402;6.608;2024-03-23T14:07:11;6.82;;;2.00;;
80578;SDS011;69939;52.402;6.608;2024-03-23T14:09:38;3.58;;;1.30;;
80578;SDS011;69939;52.402;6.608;2024-03-23T14:12:04;4.43;;;1.10;;
80578;SDS011;69939;52.402;6.608;2024-03-23T14:14:34;5.15;;;1.40;;
80578;SDS011;69939;52.402;6.608;2024-03-23T14:17:03;4.20;;;2.03;;
80578;SDS011;69939;52.402;6.608;2024-03-23T14:19:41;2.35;;;0.70;;
80578;SDS011;69939;52.402;6.608;2024-03-23T14:22:08;3.13;;;0.60;;
80578;SDS011;69939;52.402;6.608;2024-03-23T14:24:34;4.13;;;1.20;;
80578;SDS011;69939;52.402;6.608;2024-03-23T14:27:04;2.92;;;0.90;;
80578;SDS011;69939;52.402;6.608;2024-03-23T14:29:33;5.13;;;1.67;;
80578;SDS011;69939;52.402;6.608;2024-03-23T14:32:00;4.07;;;1.10;;
80578;SDS011;69939;52.402;6.608;2024-03-23T14:34:31;3.67;;;1.13;;
80578;SDS011;69939;52.402;6.608;2024-03-23T14:37:03;4.97;;;1.20;;
80578;SDS011;69939;52.402;6.608;2024-03-23T14:39:38;3.65;;;1.20;;
80578;SDS011;69939;52.402;6.608;2024-03-23T14:42:07;5.65;;;1.88;;
80578;SDS011;69939;52.402;6.608;2024-03-23T14:44:33;4.57;;;2.38;;
80578;SDS011;69939;52.402;6.608;2024-03-23T14:47:00;3.80;;;2.08;;
80578;SDS011;69939;52.402;6.608;2024-03-23T14:49:28;3.28;;;1.17;;
80578;SDS011;69939;52.402;6.608;2024-03-23T14:51:59;6.65;;;3.80;;
80578;SDS011;69939;52.402;6.608;2024-03-23T14:54:25;6.28;;;2.25;;
80578;SDS011;69939;52.402;6.608;2024-03-23T14:56:55;3.83;;;2.00;;
80578;SDS011;69939;52.402;6.608;2024-03-23T14:59:21;5.25;;;2.47;;
80578;SDS011;69939;52.402;6.608;2024-03-23T15:01:58;4.07;;;1.25;;
80578;SDS011;69939;52.402;6.608;2024-03-23T15:04:42;6.30;;;1.85;;
80578;SDS011;69939;52.402;6.608;2024-03-23T15:07:09;6.85;;;2.08;;
80578;SDS011;69939;52.402;6.608;2024-03-23T15:09:36;6.50;;;1.73;;
80578;SDS011;69939;52.402;6.608;2024-03-23T15:12:03;4.05;;;1.23;;
80578;SDS011;69939;52.402;6.608;2024-03-23T15:14:36;4.40;;;1.77;;
80578;SDS011;69939;52.402;6.608;2024-03-23T15:17:06;5.22;;;2.50;;
80578;SDS011;69939;52.402;6.608;2024-03-23T15:19:33;6.75;;;1.58;;
80578;SDS011;69939;52.402;6.608;2024-03-23T15:22:00;3.00;;;1.35;;
80578;SDS011;69939;52.402;6.608;2024-03-23T15:24:28;5.25;;;1.80;;
80578;SDS011;69939;52.402;6.608;2024-03-23T15:26:54;4.30;;;1.50;;
80578;SDS011;69939;52.402;6.608;2024-03-23T15:29:33;4.82;;;1.67;;
80578;SDS011;69939;52.402;6.608;2024-03-23T15:31:59;6.82;;;2.10;;
80578;SDS011;69939;52.402;6.608;2024-03-23T15:34:26;5.75;;;1.48;;
80578;SDS011;69939;52.402;6.608;2024-03-23T15:36:52;4.75;;;1.60;;
80578;SDS011;69939;52.402;6.608;2024-03-23T15:39:18;4.28;;;1.25;;
80578;SDS011;69939;52.402;6.608;2024-03-23T15:41:45;4.85;;;1.50;;
80578;SDS011;69939;52.402;6.608;2024-03-23T15:44:20;4.32;;;1.50;;
80578;SDS011;69939;52.402;6.608;2024-03-23T15:46:47;4.47;;;1.30;;
80578;SDS011;69939;52.402;6.608;2024-03-23T15:49:16;6.40;;;1.80;;
80578;SDS011;69939;52.402;6.608;2024-03-23T15:51:43;4.72;;;1.38;;
80578;SDS011;69939;52.402;6.608;2024-03-23T15:54:10;6.28;;;1.50;;
80578;SDS011;69939;52.402;6.608;2024-03-23T15:56:37;5.65;;;1.27;;
80578;SDS011;69939;52.402;6.608;2024-03-23T15:59:05;5.95;;;1.60;;
80578;SDS011;69939;52.402;6.608;2024-03-23T16:01:35;6.25;;;1.73;;
80578;SDS011;69939;52.402;6.608;2024-03-23T16:04:10;7.15;;;2.40;;
80578;SDS011;69939;52.402;6.608;2024-03-23T16:06:38;8.90;;;2.50;;
80578;SDS011;69939;52.402;6.608;2024-03-23T16:09:05;6.30;;;1.75;;
80578;SDS011;69939;52.402;6.608;2024-03-23T16:11:41;7.57;;;2.22;;
80578;SDS011;69939;52.402;6.608;2024-03-23T16:14:07;7.78;;;1.77;;
80578;SDS011;69939;52.402;6.608;2024-03-23T16:16:34;3.65;;;1.75;;
80578;SDS011;69939;52.402;6.608;2024-03-23T16:19:04;8.05;;;2.10;;
80578;SDS011;69939;52.402;6.608;2024-03-23T16:21:30;5.10;;;2.00;;